Explorer — C6TN4 — position and weather

sailwx.info

Track history (hours):
 
Tides and Currents Weather Stations Pressure Air Temp Water Temp Dewpoint Dewpoint Depression Visibility Wind Speed Wind Dir Waves Ship Positions

Explorer

Last reported at 2014-Oct-01 05:33 UTC. Time now 2014-Oct-01 06:05 UTC.
Position N 38°40' W 009°18'.

Length 180 m; draft 7.4 m.

Type: Passenger vessel. MMSI: 311705000.

Date/timePositionNaut miles runAvg speedWind from/ knotsBaromVisibWave heightAir tempDewpointWater temp
2014-Oct-01 05:33N 38°40' W 009°18'1111.3
2014-Oct-01 04:33N 38°35' W 009°31'  
2014-Sep-21 18:32N 49°37' W 000°21'3 2.9
2014-Sep-21 17:28N 49°36' W 000°17'0 0.0
2014-Sep-21 16:28N 49°36' W 000°17'0 0.0
2014-Sep-21 15:28N 49°36' W 000°17'0 0.0
2014-Sep-21 14:28N 49°36' W 000°17'0 0.0
2014-Sep-21 13:28N 49°36' W 000°17'0 0.0
2014-Sep-21 12:31N 49°36' W 000°17'0 0.2
2014-Sep-21 11:33N 49°36' W 000°17'9 9.0
2014-Sep-21 10:34N 49°31' W 000°05'8 7.5
2014-Sep-21 09:31N 49°29' E 000°06'0 0.0
2014-Sep-21 08:31N 49°29' E 000°06'0 0.0
2014-Sep-21 07:31N 49°29' E 000°06'0 0.0
2014-Sep-21 06:31N 49°29' E 000°06'  
Track history (hours):
 
Tides and Currents Weather Stations Pressure Air Temp Water Temp Dewpoint Dewpoint Depression Visibility Wind Speed Wind Dir Waves Ship Positions

Explorer

Last reported at 2014-Oct-01 05:33 UTC. Time now 2014-Oct-01 06:05 UTC.
Position N 38°40' W 009°18'.

Length 180 m; draft 7.4 m.

Type: Passenger vessel. MMSI: 311705000.

Date/timePositionNaut miles runAvg speedWind from/ knotsBaromVisibWave heightAir tempDewpointWater temp
2014-Oct-01 05:33N 38°40' W 009°18'1111.3
2014-Oct-01 04:33N 38°35' W 009°31'  
2014-Sep-21 18:32N 49°37' W 000°21'3 2.9
2014-Sep-21 17:28N 49°36' W 000°17'0 0.0
2014-Sep-21 16:28N 49°36' W 000°17'0 0.0
2014-Sep-21 15:28N 49°36' W 000°17'0 0.0
2014-Sep-21 14:28N 49°36' W 000°17'0 0.0
2014-Sep-21 13:28N 49°36' W 000°17'0 0.0
2014-Sep-21 12:31N 49°36' W 000°17'0 0.2
2014-Sep-21 11:33N 49°36' W 000°17'9 9.0
2014-Sep-21 10:34N 49°31' W 000°05'8 7.5
2014-Sep-21 09:31N 49°29' E 000°06'0 0.0
2014-Sep-21 08:31N 49°29' E 000°06'0 0.0
2014-Sep-21 07:31N 49°29' E 000°06'0 0.0
2014-Sep-21 06:31N 49°29' E 000°06'  

Dump ship's entire track history